Time;durP1;ratioP1;P1;durP2;ratioP2;P2;SDS_P1;SDS_P2;PMS_P1;PMS_P2;Temp;Humidity;BMP_temperature;BMP_pressure;BME280_temperature;BME280_humidity;BME280_pressure;Samples;Min_cycle;Max_cycle;Signal;HPM_P1;HPM_P2
2022/02/21 00:00:37;;;;;;;;;;;;;;;;;;2210037;67;1024;-71
2022/02/21 00:03:22;;;;;;;;;;;;;;;;;;2209438;59;1724;-70
2022/02/21 00:05:56;;;;;;;;;;;;;;;;;;2209979;59;1344;-71
2022/02/21 00:08:41;;;;;;;;;;;;;;;;;;2210137;67;1370;-70
2022/02/21 00:11:18;;;;;;;;;;;;;;;;;;2209793;67;1118;-71
2022/02/21 00:13:55;;;;;;;;;;;;;;;;;;2208444;59;1719;-71
2022/02/21 00:16:28;;;;;;;;;;;;;;;;;;2209580;59;1432;-70
2022/02/21 00:19:02;;;;;;;;;;;;;;;;;;2210724;59;1223;-71
2022/02/21 00:21:39;;;;;;;;;;;;;;;;;;2210873;59;1412;-71
2022/02/21 00:24:12;;;;;;;;;;;;;;;;;;2210555;59;1148;-71
2022/02/21 00:26:50;;;;;;;;;;;;;;;;;;2210993;67;1110;-70
2022/02/21 00:29:25;;;;;;;;;;;;;;;;;;2210888;67;1933;-71
2022/02/21 00:32:06;;;;;;;;;;;;;;;;;;2211189;67;1322;-71
2022/02/21 00:34:42;;;;;;;;;;;;;;;;;;2210214;59;1842;-71
2022/02/21 00:37:16;;;;;;;;;;;;;;;;;;2210102;59;1920;-71
2022/02/21 00:39:49;;;;;;;;;;;;;;;;;;2210590;59;1112;-70
2022/02/21 00:42:26;;;;;;;;;;;;;;;;;;2210725;59;1186;-70
2022/02/21 00:45:07;;;;;;;;;;;;;;;;;;2210597;60;1174;-71
2022/02/21 00:47:42;;;;;;;;;;;;;;;;;;2210730;59;1498;-70
2022/02/21 00:50:15;;;;;;;;;;;;;;;;;;2209983;67;2108;-71
2022/02/21 00:52:52;;;;;;;;;;;;;;;;;;2210834;59;1216;-71
2022/02/21 00:55:25;;;;;;;;;;;;;;;;;;2210134;59;1758;-70
2022/02/21 00:58:02;;;;;;;;;;;;;;;;;;2211085;59;1349;-71
2022/02/21 01:00:39;;;;;;;;;;;;;;;;;;2210570;59;1188;-71
2022/02/21 01:03:18;;;;;;;;;;;;;;;;;;2209857;59;1728;-71
2022/02/21 01:05:51;;;;;;;;;;;;;;;;;;2210449;67;1231;-71
2022/02/21 01:08:27;;;;;;;;;;;;;;;;;;2210118;59;1271;-69
2022/02/21 01:11:01;;;;;;;;;;;;;;;;;;2210126;67;2120;-71
2022/02/21 01:13:38;;;;;;;;;;;;;;;;;;2210387;67;1151;-71
2022/02/21 01:16:17;;;;;;;;;;;;;;;;;;2210296;59;1715;-71
2022/02/21 01:18:50;;;;;;;;;;;;;;;;;;2210961;59;1035;-71
2022/02/21 01:21:23;;;;;;;;;;;;;;;;;;2210963;59;1238;-71
2022/02/21 01:23:59;;;;;;;;;;;;;;;;;;2208956;59;1533;-71
2022/02/21 01:26:33;;;;;;;;;;;;;;;;;;2210017;59;1763;-70
2022/02/21 01:29:10;;;;;;;;;;;;;;;;;;2210280;59;1111;-71
2022/02/21 01:31:43;;;;;;;;;;;;;;;;;;2210834;67;1347;-71
2022/02/21 01:34:19;;;;;;;;;;;;;;;;;;2209724;59;1694;-71
2022/02/21 01:36:55;;;;;;;;;;;;;;;;;;2210573;59;1695;-71
2022/02/21 01:39:31;;;;;;;;;;;;;;;;;;2210471;59;1279;-71
2022/02/21 01:42:06;;;;;;;;;;;;;;;;;;2210930;67;1149;-71
2022/02/21 01:44:43;;;;;;;;;;;;;;;;;;2209373;59;1912;-71
2022/02/21 01:47:17;;;;;;;;;;;;;;;;;;2209055;59;1765;-70
2022/02/21 01:49:51;;;;;;;;;;;;;;;;;;2209278;59;1979;-70
2022/02/21 01:52:24;;;;;;;;;;;;;;;;;;2209065;59;2328;-71
2022/02/21 01:54:57;;;;;;;;;;;;;;;;;;2208429;59;1795;-71
2022/02/21 01:57:31;;;;;;;;;;;;;;;;;;2208992;59;2344;-70
2022/02/21 02:00:08;;;;;;;;;;;;;;;;;;2209364;59;1958;-71
2022/02/21 02:02:45;;;;;;;;;;;;;;;;;;2209190;59;1670;-71
2022/02/21 02:05:19;;;;;;;;;;;;;;;;;;2209662;59;1688;-71
2022/02/21 02:07:53;;;;;;;;;;;;;;;;;;2209531;59;1851;-71
2022/02/21 02:10:26;;;;;;;;;;;;;;;;;;2209133;59;1956;-70
2022/02/21 02:12:59;;;;;;;;;;;;;;;;;;2209564;59;1908;-70
2022/02/21 02:15:36;;;;;;;;;;;;;;;;;;2209033;59;2014;-71
2022/02/21 02:18:09;;;;;;;;;;;;;;;;;;2209679;59;1901;-71
2022/02/21 02:20:42;;;;;;;;;;;;;;;;;;2208661;59;1707;-70
2022/02/21 02:23:18;;;;;;;;;;;;;;;;;;2208904;59;1891;-71
2022/02/21 02:25:52;;;;;;;;;;;;;;;;;;2209348;59;1835;-70
2022/02/21 02:28:26;;;;;;;;;;;;;;;;;;2208937;59;2026;-70
2022/02/21 02:30:59;;;;;;;;;;;;;;;;;;2209749;59;1989;-71
2022/02/21 02:33:34;;;;;;;;;;;;;;;;;;2210068;67;1251;-71
2022/02/21 02:36:07;;;;;;;;;;;;;;;;;;2210157;59;1876;-70
2022/02/21 02:38:44;;;;;;;;;;;;;;;;;;2210147;59;1848;-71
2022/02/21 02:41:17;;;;;;;;;;;;;;;;;;2210037;67;1125;-71
2022/02/21 02:43:50;;;;;;;;;;;;;;;;;;2210443;67;1289;-70
2022/02/21 02:46:23;;;;;;;;;;;;;;;;;;2210474;59;1504;-71
2022/02/21 02:48:56;;;;;;;;;;;;;;;;;;2210090;59;1551;-71
2022/02/21 02:51:30;;;;;;;;;;;;;;;;;;2206788;59;1945;-70
2022/02/21 02:54:07;;;;;;;;;;;;;;;;;;2209663;59;1754;-71
2022/02/21 02:56:41;;;;;;;;;;;;;;;;;;2210210;59;1302;-71
2022/02/21 02:59:15;;;;;;;;;;;;;;;;;;2210203;67;1312;-71
2022/02/21 03:01:48;;;;;;;;;;;;;;;;;;2210226;59;1167;-71
2022/02/21 03:04:22;;;;;;;;;;;;;;;;;;2210161;67;1187;-70
2022/02/21 03:07:00;;;;;;;;;;;;;;;;;;2210454;67;1363;-71
2022/02/21 03:09:36;;;;;;;;;;;;;;;;;;2210476;67;1172;-71
2022/02/21 03:12:10;;;;;;;;;;;;;;;;;;2210580;59;1998;-71
2022/02/21 03:14:43;;;;;;;;;;;;;;;;;;2209718;59;1654;-71
2022/02/21 03:17:17;;;;;;;;;;;;;;;;;;2210363;59;1418;-71
2022/02/21 03:19:50;;;;;;;;;;;;;;;;;;2210595;67;1125;-70
2022/02/21 03:22:23;;;;;;;;;;;;;;;;;;2210284;67;1455;-71
2022/02/21 03:25:00;;;;;;;;;;;;;;;;;;2210253;67;1223;-71
2022/02/21 03:27:33;;;;;;;;;;;;;;;;;;2210551;67;1224;-71
2022/02/21 03:30:07;;;;;;;;;;;;;;;;;;2210382;67;1996;-71
2022/02/21 03:32:40;;;;;;;;;;;;;;;;;;2210590;67;1173;-71
2022/02/21 03:35:14;;;;;;;;;;;;;;;;;;2209202;59;2055;-71
2022/02/21 03:37:47;;;;;;;;;;;;;;;;;;2210097;67;1202;-71
2022/02/21 03:40:23;;;;;;;;;;;;;;;;;;2210173;59;1285;-71
2022/02/21 03:42:57;;;;;;;;;;;;;;;;;;2210462;59;1189;-71
2022/02/21 03:45:30;;;;;;;;;;;;;;;;;;2210286;67;1227;-71
2022/02/21 03:48:04;;;;;;;;;;;;;;;;;;2210514;59;1487;-71
2022/02/21 03:50:37;;;;;;;;;;;;;;;;;;2209836;59;1929;-71
2022/02/21 03:53:10;;;;;;;;;;;;;;;;;;2210712;67;1176;-71
2022/02/21 03:55:46;;;;;;;;;;;;;;;;;;2210097;59;1746;-71
2022/02/21 03:58:20;;;;;;;;;;;;;;;;;;2210532;59;1678;-71
2022/02/21 04:00:53;;;;;;;;;;;;;;;;;;2210534;59;1640;-71
2022/02/21 04:03:26;;;;;;;;;;;;;;;;;;2211012;67;1057;-71
2022/02/21 04:05:59;;;;;;;;;;;;;;;;;;2210814;59;1164;-71
2022/02/21 04:08:33;;;;;;;;;;;;;;;;;;2210699;67;1318;-71
2022/02/21 04:11:09;;;;;;;;;;;;;;;;;;2210753;67;1989;-71
2022/02/21 04:13:42;;;;;;;;;;;;;;;;;;2210659;67;1109;-71
2022/02/21 04:16:15;;;;;;;;;;;;;;;;;;2210440;59;1957;-71
2022/02/21 04:18:49;;;;;;;;;;;;;;;;;;2210905;67;1147;-71
2022/02/21 04:21:22;;;;;;;;;;;;;;;;;;2211036;59;1293;-71
2022/02/21 04:23:55;;;;;;;;;;;;;;;;;;2210283;67;1253;-71
2022/02/21 04:26:31;;;;;;;;;;;;;;;;;;2210518;59;1525;-71
2022/02/21 04:29:05;;;;;;;;;;;;;;;;;;2210635;67;1326;-71
2022/02/21 04:31:38;;;;;;;;;;;;;;;;;;2206601;59;1989;-71
2022/02/21 04:36:45;;;;;;;;;;;;;;;;;;2206578;59;1542;-70
2022/02/21 04:39:18;;;;;;;;;;;;;;;;;;2209653;59;1105;-70
2022/02/21 04:41:54;;;;;;;;;;;;;;;;;;2210353;67;1187;-70
2022/02/21 04:44:27;;;;;;;;;;;;;;;;;;2210361;67;1211;-70
2022/02/21 04:47:00;;;;;;;;;;;;;;;;;;2210669;59;1372;-70
2022/02/21 04:49:33;;;;;;;;;;;;;;;;;;2210592;59;1600;-70
2022/02/21 04:52:07;;;;;;;;;;;;;;;;;;2210527;59;1929;-70
2022/02/21 04:54:40;;;;;;;;;;;;;;;;;;2210236;59;1503;-71
2022/02/21 04:57:16;;;;;;;;;;;;;;;;;;2210484;67;1295;-70
2022/02/21 04:59:49;;;;;;;;;;;;;;;;;;2210493;67;1178;-70
2022/02/21 05:02:22;;;;;;;;;;;;;;;;;;2210307;59;1104;-70
2022/02/21 05:04:56;;;;;;;;;;;;;;;;;;2210649;67;1160;-70
2022/02/21 05:07:29;;;;;;;;;;;;;;;;;;2210827;67;1147;-70
2022/02/21 05:10:02;;;;;;;;;;;;;;;;;;2210828;59;1127;-70
2022/02/21 05:12:38;;;;;;;;;;;;;;;;;;2210473;59;1978;-70
2022/02/21 05:15:12;;;;;;;;;;;;;;;;;;2210362;59;1747;-70
2022/02/21 05:17:45;;;;;;;;;;;;;;;;;;2210648;59;1305;-72
2022/02/21 05:20:18;;;;;;;;;;;;;;;;;;2210157;67;1158;-70
2022/02/21 05:22:51;;;;;;;;;;;;;;;;;;2210491;59;1415;-70
2022/02/21 05:25:24;;;;;;;;;;;;;;;;;;2210371;67;1242;-70
2022/02/21 05:28:00;;;;;;;;;;;;;;;;;;2210588;67;1147;-70
2022/02/21 05:30:33;;;;;;;;;;;;;;;;;;2210388;67;1144;-70
2022/02/21 05:33:07;;;;;;;;;;;;;;;;;;2210670;67;1226;-70
2022/02/21 05:35:40;;;;;;;;;;;;;;;;;;2210257;59;1554;-70
2022/02/21 05:38:13;;;;;;;;;;;;;;;;;;2210471;67;1104;-70
2022/02/21 05:40:46;;;;;;;;;;;;;;;;;;2210839;67;1033;-70
2022/02/21 05:43:22;;;;;;;;;;;;;;;;;;2210487;67;1231;-69
2022/02/21 05:45:55;;;;;;;;;;;;;;;;;;2210608;59;1167;-71
2022/02/21 05:48:28;;;;;;;;;;;;;;;;;;2210393;59;1430;-70
2022/02/21 05:51:01;;;;;;;;;;;;;;;;;;2210235;59;1936;-70
2022/02/21 05:53:34;;;;;;;;;;;;;;;;;;2210563;67;1423;-70
2022/02/21 05:56:08;;;;;;;;;;;;;;;;;;2209999;59;1635;-69
2022/02/21 05:58:43;;;;;;;;;;;;;;;;;;2210337;67;1475;-70
2022/02/21 06:01:18;;;;;;;;;;;;;;;;;;2210320;67;1171;-70
2022/02/21 06:03:51;;;;;;;;;;;;;;;;;;2210588;67;1128;-69
2022/02/21 06:06:24;;;;;;;;;;;;;;;;;;2210399;59;1234;-68
2022/02/21 06:08:57;;;;;;;;;;;;;;;;;;2210061;59;1591;-68
2022/02/21 06:11:30;;;;;;;;;;;;;;;;;;2209924;59;1975;-69
2022/02/21 06:14:07;;;;;;;;;;;;;;;;;;2209934;67;1132;-69
2022/02/21 06:16:41;;;;;;;;;;;;;;;;;;2209755;59;1651;-69
2022/02/21 06:19:14;;;;;;;;;;;;;;;;;;2208487;67;1734;-69
2022/02/21 06:21:47;;;;;;;;;;;;;;;;;;2210580;59;1481;-70
2022/02/21 06:24:21;;;;;;;;;;;;;;;;;;2209548;67;1412;-70
2022/02/21 06:26:54;;;;;;;;;;;;;;;;;;2210381;59;1293;-71
2022/02/21 06:29:32;;;;;;;;;;;;;;;;;;2210252;67;1293;-72
2022/02/21 06:32:07;;;;;;;;;;;;;;;;;;2209641;59;2458;-72
2022/02/21 06:34:40;;;;;;;;;;;;;;;;;;2209437;59;1525;-72
2022/02/21 06:37:14;;;;;;;;;;;;;;;;;;2210310;59;1191;-72
2022/02/21 06:39:47;;;;;;;;;;;;;;;;;;2209630;59;1629;-72
2022/02/21 06:42:23;;;;;;;;;;;;;;;;;;2210241;59;1971;-73
2022/02/21 06:44:59;;;;;;;;;;;;;;;;;;2210166;67;1226;-73
2022/02/21 06:47:32;;;;;;;;;;;;;;;;;;2209993;59;1335;-73
2022/02/21 06:50:06;;;;;;;;;;;;;;;;;;2210118;59;1654;-73
2022/02/21 06:52:40;;;;;;;;;;;;;;;;;;2210379;67;1975;-73
2022/02/21 06:55:14;;;;;;;;;;;;;;;;;;2209343;59;1647;-73
2022/02/21 06:57:48;;;;;;;;;;;;;;;;;;2209557;59;1745;-72
2022/02/21 07:00:24;;;;;;;;;;;;;;;;;;2208370;59;2027;-72
2022/02/21 07:02:57;;;;;;;;;;;;;;;;;;2209996;67;1104;-71
2022/02/21 07:05:31;;;;;;;;;;;;;;;;;;2209908;59;1262;-71
2022/02/21 07:08:04;;;;;;;;;;;;;;;;;;2210270;59;1206;-72
2022/02/21 07:10:37;;;;;;;;;;;;;;;;;;2209060;59;1808;-72
2022/02/21 07:13:11;;;;;;;;;;;;;;;;;;2209987;67;1988;-72
2022/02/21 07:15:47;;;;;;;;;;;;;;;;;;2209432;59;1706;-70
2022/02/21 07:18:20;;;;;;;;;;;;;;;;;;2210239;59;1638;-68
2022/02/21 07:20:53;;;;;;;;;;;;;;;;;;2208507;59;1711;-68
2022/02/21 07:23:26;;;;;;;;;;;;;;;;;;2209037;59;2481;-67
2022/02/21 07:25:59;;;;;;;;;;;;;;;;;;2209364;59;1767;-68
2022/02/21 07:28:32;;;;;;;;;;;;;;;;;;2210003;59;1610;-68
2022/02/21 07:31:09;;;;;;;;;;;;;;;;;;2210438;59;1180;-68
2022/02/21 07:33:43;;;;;;;;;;;;;;;;;;2210255;59;1936;-68
2022/02/21 07:36:16;;;;;;;;;;;;;;;;;;2209341;59;1584;-67
2022/02/21 07:38:49;;;;;;;;;;;;;;;;;;2210460;67;1087;-68
2022/02/21 07:41:22;;;;;;;;;;;;;;;;;;2210462;59;1273;-67
2022/02/21 07:43:55;;;;;;;;;;;;;;;;;;2210454;67;1149;-68
2022/02/21 07:46:31;;;;;;;;;;;;;;;;;;2209684;59;1989;-68
2022/02/21 07:49:04;;;;;;;;;;;;;;;;;;2210858;59;1711;-67
2022/02/21 07:51:37;;;;;;;;;;;;;;;;;;2210526;59;1931;-68
2022/02/21 07:54:11;;;;;;;;;;;;;;;;;;2210521;67;1152;-68
2022/02/21 07:56:44;;;;;;;;;;;;;;;;;;2210049;59;1650;-68
2022/02/21 07:59:17;;;;;;;;;;;;;;;;;;2209772;59;1455;-68
2022/02/21 08:01:53;;;;;;;;;;;;;;;;;;2210542;67;1059;-67
2022/02/21 08:04:26;;;;;;;;;;;;;;;;;;2210342;67;1150;-67
2022/02/21 08:07:00;;;;;;;;;;;;;;;;;;2210616;59;1292;-68
2022/02/21 08:09:34;;;;;;;;;;;;;;;;;;2210545;59;1145;-68
2022/02/21 08:12:08;;;;;;;;;;;;;;;;;;2210553;67;1928;-68
2022/02/21 08:14:41;;;;;;;;;;;;;;;;;;2210420;59;1511;-68
2022/02/21 08:17:17;;;;;;;;;;;;;;;;;;2210403;59;1265;-68
2022/02/21 08:19:50;;;;;;;;;;;;;;;;;;2210308;67;1405;-69
2022/02/21 08:22:24;;;;;;;;;;;;;;;;;;2210669;59;1219;-68
2022/02/21 08:24:57;;;;;;;;;;;;;;;;;;2210252;67;1264;-69
2022/02/21 08:27:30;;;;;;;;;;;;;;;;;;2210427;59;1115;-69
2022/02/21 08:30:03;;;;;;;;;;;;;;;;;;2210557;59;1324;-69
2022/02/21 08:32:39;;;;;;;;;;;;;;;;;;2210512;59;1932;-70
2022/02/21 08:35:12;;;;;;;;;;;;;;;;;;2210096;59;1784;-69
2022/02/21 08:37:45;;;;;;;;;;;;;;;;;;2210414;67;1188;-69
2022/02/21 08:40:21;;;;;;;;;;;;;;;;;;2210574;67;1058;-69
2022/02/21 08:42:54;;;;;;;;;;;;;;;;;;2210273;59;1188;-69
2022/02/21 08:45:27;;;;;;;;;;;;;;;;;;2206439;59;1551;-69
2022/02/21 08:48:03;;;;;;;;;;;;;;;;;;2209980;59;1505;-69
2022/02/21 08:50:36;;;;;;;;;;;;;;;;;;2209823;67;1373;-68
2022/02/21 08:53:09;;;;;;;;;;;;;;;;;;2210411;59;1937;-68
2022/02/21 08:55:43;;;;;;;;;;;;;;;;;;2210078;59;2018;-69
2022/02/21 08:58:16;;;;;;;;;;;;;;;;;;2208413;59;1204;-69
2022/02/21 09:00:49;;;;;;;;;;;;;;;;;;2210233;67;1298;-67
2022/02/21 09:03:26;;;;;;;;;;;;;;;;;;2209538;67;1127;-67
2022/02/21 09:05:59;;;;;;;;;;;;;;;;;;2210458;67;1288;-67
2022/02/21 09:08:33;;;;;;;;;;;;;;;;;;2210163;67;1108;-67
2022/02/21 09:11:06;;;;;;;;;;;;;;;;;;2210597;67;1166;-67
2022/02/21 09:13:39;;;;;;;;;;;;;;;;;;2209570;67;1989;-67
2022/02/21 09:16:12;;;;;;;;;;;;;;;;;;2208961;59;1924;-68
2022/02/21 09:18:48;;;;;;;;;;;;;;;;;;2209664;59;1264;-69
2022/02/21 09:21:21;;;;;;;;;;;;;;;;;;2209359;59;1111;-68
2022/02/21 09:23:54;;;;;;;;;;;;;;;;;;2208259;59;1224;-68
2022/02/21 09:26:27;;;;;;;;;;;;;;;;;;2208078;59;1513;-68
2022/02/21 09:29:01;;;;;;;;;;;;;;;;;;2209690;67;1016;-68
2022/02/21 09:31:34;;;;;;;;;;;;;;;;;;2210775;59;1253;-68
2022/02/21 09:34:10;;;;;;;;;;;;;;;;;;2209791;67;1927;-69
2022/02/21 09:36:43;;;;;;;;;;;;;;;;;;2209580;59;1879;-68
2022/02/21 09:39:16;;;;;;;;;;;;;;;;;;2209352;59;1131;-68
2022/02/21 09:41:51;;;;;;;;;;;;;;;;;;2210212;59;1172;-68
2022/02/21 09:44:24;;;;;;;;;;;;;;;;;;2207763;59;1196;-68
2022/02/21 09:46:58;;;;;;;;;;;;;;;;;;2209752;59;1415;-68
2022/02/21 09:49:34;;;;;;;;;;;;;;;;;;2209436;59;1634;-68
2022/02/21 09:52:07;;;;;;;;;;;;;;;;;;2209435;59;1765;-68
2022/02/21 09:54:40;;;;;;;;;;;;;;;;;;2208874;59;1655;-68
2022/02/21 09:57:16;;;;;;;;;;;;;;;;;;2209483;67;1181;-68
2022/02/21 09:59:49;;;;;;;;;;;;;;;;;;2209235;59;1992;-68
2022/02/21 10:02:24;;;;;;;;;;;;;;;;;;2210277;67;1108;-68
2022/02/21 10:05:16;;;;;;;;;;;;;;;;;;2208979;67;1225;-68
2022/02/21 10:07:50;;;;;;;;;;;;;;;;;;2209643;59;1733;-68
2022/02/21 10:10:24;;;;;;;;;;;;;;;;;;2210309;67;1243;-68
2022/02/21 10:12:58;;;;;;;;;;;;;;;;;;2210364;59;1932;-69
2022/02/21 10:15:31;;;;;;;;;;;;;;;;;;2209124;59;1969;-68
2022/02/21 10:18:11;;;;;;;;;;;;;;;;;;2209665;59;1522;-68
2022/02/21 10:20:58;;;;;;;;;;;;;;;;;;2209792;67;1129;-68
2022/02/21 10:23:35;;;;;;;;;;;;;;;;;;2210247;67;1438;-68
2022/02/21 10:26:09;;;;;;;;;;;;;;;;;;2209509;67;1307;-69
2022/02/21 10:28:44;;;;;;;;;;;;;;;;;;2210022;59;1272;-69
2022/02/21 10:31:17;;;;;;;;;;;;;;;;;;2210110;59;1248;-69
2022/02/21 10:34:00;;;;;;;;;;;;;;;;;;2210382;67;2022;-69
2022/02/21 10:36:37;;;;;;;;;;;;;;;;;;2209951;59;3754;-70
2022/02/21 10:39:10;;;;;;;;;;;;;;;;;;2210807;59;1225;-70
2022/02/21 10:41:45;;;;;;;;;;;;;;;;;;2213334;59;1157;-69
2022/02/21 10:44:25;;;;;;;;;;;;;;;;;;2211568;59;1492;-69
2022/02/21 10:47:06;;;;;;;;;;;;;;;;;;2211788;59;1470;-69
2022/02/21 10:49:40;;;;;;;;;;;;;;;;;;2210474;59;1635;-69
2022/02/21 10:52:17;;;;;;;;;;;;;;;;;;2210922;67;1053;-69
2022/02/21 10:54:51;;;;;;;;;;;;;;;;;;2211151;59;1925;-69
2022/02/21 10:57:27;;;;;;;;;;;;;;;;;;2209762;59;1121;-69
2022/02/21 11:00:00;;;;;;;;;;;;;;;;;;2210431;59;1226;-69
2022/02/21 11:02:33;;;;;;;;;;;;;;;;;;2210106;67;1343;-69
2022/02/21 11:05:08;;;;;;;;;;;;;;;;;;2211936;59;1197;-69
2022/02/21 11:07:46;;;;;;;;;;;;;;;;;;2210483;59;1214;-69
2022/02/21 11:10:19;;;;;;;;;;;;;;;;;;2211128;59;1248;-69
2022/02/21 11:12:52;;;;;;;;;;;;;;;;;;2211332;67;1928;-69
2022/02/21 11:15:25;;;;;;;;;;;;;;;;;;2206626;59;1589;-69
2022/02/21 11:17:59;;;;;;;;;;;;;;;;;;2209798;59;1377;-68
2022/02/21 11:20:32;;;;;;;;;;;;;;;;;;2208379;67;1204;-68
2022/02/21 11:23:08;;;;;;;;;;;;;;;;;;2210808;59;1064;-68
2022/02/21 11:25:44;;;;;;;;;;;;;;;;;;2210523;67;1207;-69
2022/02/21 11:28:23;;;;;;;;;;;;;;;;;;2209670;59;1848;-68
2022/02/21 11:31:00;;;;;;;;;;;;;;;;;;2205365;67;1027;-68
2022/02/21 11:33:33;;;;;;;;;;;;;;;;;;2208775;67;1934;-69
2022/02/21 11:36:07;;;;;;;;;;;;;;;;;;2208813;59;1875;-69
2022/02/21 11:38:43;;;;;;;;;;;;;;;;;;2208497;59;1741;-68
2022/02/21 11:41:17;;;;;;;;;;;;;;;;;;2210702;67;1080;-68
2022/02/21 11:43:52;;;;;;;;;;;;;;;;;;2208264;59;1500;-68
2022/02/21 11:46:26;;;;;;;;;;;;;;;;;;2208669;59;1781;-68
2022/02/21 11:49:00;;;;;;;;;;;;;;;;;;2208557;59;1823;-68
2022/02/21 11:51:34;;;;;;;;;;;;;;;;;;2209253;59;1299;-68
2022/02/21 11:54:26;;;;;;;;;;;;;;;;;;2208772;59;1928;-68
2022/02/21 11:57:02;;;;;;;;;;;;;;;;;;2209738;59;1643;-69
2022/02/21 11:59:35;;;;;;;;;;;;;;;;;;2210709;59;1712;-69
2022/02/21 12:02:13;;;;;;;;;;;;;;;;;;2209444;67;1054;-69
2022/02/21 12:05:04;;;;;;;;;;;;;;;;;;2209524;67;1226;-69
2022/02/21 12:07:38;;;;;;;;;;;;;;;;;;2210910;67;1113;-69
2022/02/21 12:10:24;;;;;;;;;;;;;;;;;;2211161;59;1345;-69
2022/02/21 12:13:02;;;;;;;;;;;;;;;;;;2210320;59;1976;-69
2022/02/21 12:15:35;;;;;;;;;;;;;;;;;;2207077;59;1694;-70
2022/02/21 12:18:23;;;;;;;;;;;;;;;;;;2207335;59;1392;-69
2022/02/21 12:21:09;;;;;;;;;;;;;;;;;;2209949;59;1129;-70
2022/02/21 12:23:58;;;;;;;;;;;;;;;;;;2211223;59;1548;-70
2022/02/21 12:26:32;;;;;;;;;;;;;;;;;;2210151;59;2406;-70
2022/02/21 12:29:15;;;;;;;;;;;;;;;;;;2208664;59;2797;-70
2022/02/21 12:31:57;;;;;;;;;;;;;;;;;;2211955;67;1097;-70
2022/02/21 12:34:31;;;;;;;;;;;;;;;;;;2211332;67;1933;-69
2022/02/21 12:37:05;;;;;;;;;;;;;;;;;;2209434;59;1808;-71
2022/02/21 12:39:39;;;;;;;;;;;;;;;;;;2210873;59;1354;-69
2022/02/21 12:42:13;;;;;;;;;;;;;;;;;;2211231;59;1185;-69
2022/02/21 12:44:49;;;;;;;;;;;;;;;;;;2212784;59;1158;-70
2022/02/21 12:47:23;;;;;;;;;;;;;;;;;;2211788;59;1512;-69
2022/02/21 12:49:56;;;;;;;;;;;;;;;;;;2212073;59;1544;-70
2022/02/21 12:52:30;;;;;;;;;;;;;;;;;;2210872;67;1185;-70
2022/02/21 12:55:03;;;;;;;;;;;;;;;;;;2209330;59;1933;-70
2022/02/21 12:57:43;;;;;;;;;;;;;;;;;;2211019;59;1289;-70
2022/02/21 13:00:21;;;;;;;;;;;;;;;;;;2210122;59;1760;-69
2022/02/21 13:02:54;;;;;;;;;;;;;;;;;;2211040;59;1049;-69
2022/02/21 13:05:28;;;;;;;;;;;;;;;;;;2211523;67;1260;-69
2022/02/21 13:08:01;;;;;;;;;;;;;;;;;;2212351;67;1085;-70
2022/02/21 13:10:43;;;;;;;;;;;;;;;;;;2212019;60;1191;-69
2022/02/21 13:13:23;;;;;;;;;;;;;;;;;;2210247;53;2753;-71
2022/02/21 13:15:59;;;;;;;;;;;;;;;;;;2209220;59;1474;-71
2022/02/21 13:18:47;;;;;;;;;;;;;;;;;;2211648;59;1340;-71
2022/02/21 13:21:30;;;;;;;;;;;;;;;;;;2211050;59;1101;-71
2022/02/21 13:24:05;;;;;;;;;;;;;;;;;;2212066;59;1447;-71
2022/02/21 13:26:45;;;;;;;;;;;;;;;;;;2212733;59;2589;-71
2022/02/21 13:29:25;;;;;;;;;;;;;;;;;;2213636;58;2581;-71
2022/02/21 13:32:03;;;;;;;;;;;;;;;;;;2216710;59;2479;-70
2022/02/21 13:34:46;;;;;;;;;;;;;;;;;;2215949;58;1949;-70
2022/02/21 13:37:21;;;;;;;;;;;;;;;;;;2216760;58;1405;-70
2022/02/21 13:39:57;;;;;;;;;;;;;;;;;;2214542;58;2212;-70
2022/02/21 13:42:31;;;;;;;;;;;;;;;;;;2215638;58;2502;-69
2022/02/21 13:45:22;;;;;;;;;;;;;;;;;;2214212;58;2321;-70
2022/02/21 13:48:06;;;;;;;;;;;;;;;;;;2215598;58;1434;-69
2022/02/21 13:50:41;;;;;;;;;;;;;;;;;;2217025;59;1407;-69
2022/02/21 13:53:16;;;;;;;;;;;;;;;;;;2214943;58;1697;-69
2022/02/21 13:55:56;;;;;;;;;;;;;;;;;;2214501;58;1933;-69
2022/02/21 13:58:32;;;;;;;;;;;;;;;;;;2214858;58;1796;-69
2022/02/21 14:01:09;;;;;;;;;;;;;;;;;;2215441;66;1890;-70
2022/02/21 14:03:46;;;;;;;;;;;;;;;;;;2215711;66;1203;-70
2022/02/21 14:06:20;;;;;;;;;;;;;;;;;;2213534;58;2732;-70
2022/02/21 14:08:54;;;;;;;;;;;;;;;;;;2215275;58;1678;-69
2022/02/21 14:11:41;;;;;;;;;;;;;;;;;;2215039;58;2298;-69
2022/02/21 14:14:15;;;;;;;;;;;;;;;;;;2214279;58;2340;-69
2022/02/21 14:16:48;;;;;;;;;;;;;;;;;;2215467;58;2767;-69
2022/02/21 14:19:24;;;;;;;;;;;;;;;;;;2216625;59;1947;-70
2022/02/21 14:21:59;;;;;;;;;;;;;;;;;;2217047;58;2430;-69
2022/02/21 14:24:32;;;;;;;;;;;;;;;;;;2216045;58;2349;-69
2022/02/21 14:27:06;;;;;;;;;;;;;;;;;;2215496;58;2585;-69
2022/02/21 14:29:39;;;;;;;;;;;;;;;;;;2212578;58;1973;-70
2022/02/21 14:32:12;;;;;;;;;;;;;;;;;;2215635;58;1417;-69
2022/02/21 14:34:48;;;;;;;;;;;;;;;;;;2215695;58;1960;-69
2022/02/21 14:37:22;;;;;;;;;;;;;;;;;;2215824;66;1206;-69
2022/02/21 14:39:55;;;;;;;;;;;;;;;;;;2215570;59;1196;-69
2022/02/21 14:42:29;;;;;;;;;;;;;;;;;;2216231;58;2790;-70
2022/02/21 14:45:02;;;;;;;;;;;;;;;;;;2215725;59;1379;-70
2022/02/21 14:47:35;;;;;;;;;;;;;;;;;;2215352;58;2627;-70
2022/02/21 14:50:11;;;;;;;;;;;;;;;;;;2215820;58;2223;-69
2022/02/21 14:52:44;;;;;;;;;;;;;;;;;;2213836;58;1539;-69
2022/02/21 14:55:18;;;;;;;;;;;;;;;;;;2214859;58;1989;-69
2022/02/21 14:57:52;;;;;;;;;;;;;;;;;;2214995;58;2673;-69
2022/02/21 15:00:26;;;;;;;;;;;;;;;;;;2213887;58;2487;-69
2022/02/21 15:03:00;;;;;;;;;;;;;;;;;;2214890;58;2727;-69
2022/02/21 15:05:37;;;;;;;;;;;;;;;;;;2214050;58;2632;-69
2022/02/21 15:08:11;;;;;;;;;;;;;;;;;;2214840;58;3027;-69
2022/02/21 15:10:44;;;;;;;;;;;;;;;;;;2214688;58;1753;-69
2022/02/21 15:13:17;;;;;;;;;;;;;;;;;;2215062;58;2037;-69
2022/02/21 15:15:50;;;;;;;;;;;;;;;;;;2215807;58;2879;-69
2022/02/21 15:18:23;;;;;;;;;;;;;;;;;;2215548;58;1559;-69
2022/02/21 15:20:59;;;;;;;;;;;;;;;;;;2214799;58;2341;-70
2022/02/21 15:23:32;;;;;;;;;;;;;;;;;;2215736;58;2467;-70
2022/02/21 15:26:05;;;;;;;;;;;;;;;;;;2214952;66;1248;-70
2022/02/21 15:28:38;;;;;;;;;;;;;;;;;;2214766;59;2636;-70
2022/02/21 15:31:12;;;;;;;;;;;;;;;;;;2213814;59;2790;-70
2022/02/21 15:33:46;;;;;;;;;;;;;;;;;;2212280;58;2378;-70
2022/02/21 15:36:22;;;;;;;;;;;;;;;;;;2214283;58;1936;-70
2022/02/21 15:38:55;;;;;;;;;;;;;;;;;;2215838;58;1834;-70
2022/02/21 15:41:28;;;;;;;;;;;;;;;;;;2215381;58;2379;-70
2022/02/21 15:44:01;;;;;;;;;;;;;;;;;;2215323;58;1371;-70
2022/02/21 15:46:34;;;;;;;;;;;;;;;;;;2215506;58;1454;-70
2022/02/21 15:49:07;;;;;;;;;;;;;;;;;;2216789;58;1587;-70
2022/02/21 15:51:43;;;;;;;;;;;;;;;;;;2216766;66;1220;-70
2022/02/21 15:54:17;;;;;;;;;;;;;;;;;;2215845;58;2320;-70
2022/02/21 15:56:51;;;;;;;;;;;;;;;;;;2215447;58;2329;-70
2022/02/21 15:59:24;;;;;;;;;;;;;;;;;;2215572;58;2598;-70
2022/02/21 16:01:58;;;;;;;;;;;;;;;;;;2216018;58;2406;-71
2022/02/21 16:04:32;;;;;;;;;;;;;;;;;;2215235;59;1273;-71
2022/02/21 16:07:08;;;;;;;;;;;;;;;;;;2216143;66;1261;-70
2022/02/21 16:09:43;;;;;;;;;;;;;;;;;;2216487;59;1494;-70
2022/02/21 16:12:16;;;;;;;;;;;;;;;;;;2217011;59;1466;-72
2022/02/21 16:14:50;;;;;;;;;;;;;;;;;;2214638;58;2047;-71
2022/02/21 16:17:23;;;;;;;;;;;;;;;;;;2216029;58;1682;-70
2022/02/21 16:19:56;;;;;;;;;;;;;;;;;;2217828;59;1141;-71
2022/02/21 16:22:32;;;;;;;;;;;;;;;;;;2217006;58;1293;-70
2022/02/21 16:25:05;;;;;;;;;;;;;;;;;;2216033;58;1239;-71
2022/02/21 16:27:38;;;;;;;;;;;;;;;;;;2216698;59;1098;-70
2022/02/21 16:30:15;;;;;;;;;;;;;;;;;;2214983;58;2562;-70
2022/02/21 16:32:48;;;;;;;;;;;;;;;;;;2213270;58;1446;-71
2022/02/21 16:35:22;;;;;;;;;;;;;;;;;;2214238;58;2628;-71
2022/02/21 16:37:57;;;;;;;;;;;;;;;;;;2215961;58;1948;-71
2022/02/21 16:40:33;;;;;;;;;;;;;;;;;;2214797;66;1201;-71
2022/02/21 16:43:06;;;;;;;;;;;;;;;;;;2215834;59;1265;-71
2022/02/21 16:45:40;;;;;;;;;;;;;;;;;;2215214;66;1313;-71
2022/02/21 16:48:13;;;;;;;;;;;;;;;;;;2214607;58;1674;-71
2022/02/21 16:50:46;;;;;;;;;;;;;;;;;;2215324;58;1527;-71
2022/02/21 16:53:19;;;;;;;;;;;;;;;;;;2214989;58;2040;-71
2022/02/21 16:55:55;;;;;;;;;;;;;;;;;;2214338;58;2504;-70
2022/02/21 16:58:34;;;;;;;;;;;;;;;;;;2215423;58;1578;-71
2022/02/21 17:01:07;;;;;;;;;;;;;;;;;;2214874;58;2820;-71
2022/02/21 17:03:40;;;;;;;;;;;;;;;;;;2214271;58;2435;-70
2022/02/21 17:06:13;;;;;;;;;;;;;;;;;;2215196;59;1898;-70
2022/02/21 17:08:46;;;;;;;;;;;;;;;;;;2214647;58;2688;-70
2022/02/21 17:11:23;;;;;;;;;;;;;;;;;;2215917;58;1313;-70
2022/02/21 17:13:56;;;;;;;;;;;;;;;;;;2214824;58;1818;-71
2022/02/21 17:16:29;;;;;;;;;;;;;;;;;;2214915;59;1933;-71
2022/02/21 17:19:02;;;;;;;;;;;;;;;;;;2215628;66;1113;-71
2022/02/21 17:21:36;;;;;;;;;;;;;;;;;;2215483;59;1353;-71
2022/02/21 17:24:09;;;;;;;;;;;;;;;;;;2214666;58;1547;-71
2022/02/21 17:26:45;;;;;;;;;;;;;;;;;;2215119;58;1581;-71
2022/02/21 17:29:18;;;;;;;;;;;;;;;;;;2213836;66;2686;-71
2022/02/21 17:31:51;;;;;;;;;;;;;;;;;;2213916;59;2613;-71
2022/02/21 17:34:24;;;;;;;;;;;;;;;;;;2214890;58;1670;-71
2022/02/21 17:36:57;;;;;;;;;;;;;;;;;;2214140;58;1924;-71
2022/02/21 17:39:31;;;;;;;;;;;;;;;;;;2216565;66;1234;-71
2022/02/21 17:42:07;;;;;;;;;;;;;;;;;;2215149;58;1336;-71
2022/02/21 17:44:40;;;;;;;;;;;;;;;;;;2213205;58;1966;-71
2022/02/21 17:47:13;;;;;;;;;;;;;;;;;;2215152;58;1854;-70
2022/02/21 17:49:46;;;;;;;;;;;;;;;;;;2214733;58;1591;-70
2022/02/21 17:52:19;;;;;;;;;;;;;;;;;;2214838;58;1507;-71
2022/02/21 17:54:52;;;;;;;;;;;;;;;;;;2214203;58;2327;-71
2022/02/21 17:57:29;;;;;;;;;;;;;;;;;;2214780;58;1640;-70